Time;durP1;ratioP1;P1;durP2;ratioP2;P2;SDS_P1;SDS_P2;PMS_P1;PMS_P2;Temp;Humidity;BMP_temperature;BMP_pressure;BME280_temperature;BME280_humidity;BME280_pressure;Samples;Min_cycle;Max_cycle;Signal;HPM_P1;HPM_P2
2022/05/15 00:02:39;;;;;;;15.07;4.13;;;9.30;99.90;;;;;;6340750;22;20019;-72
2022/05/15 00:05:08;;;;;;;15.48;4.28;;;9.20;99.90;;;;;;6341660;22;20015;-72
2022/05/15 00:07:35;;;;;;;23.23;4.65;;;9.20;99.90;;;;;;6341536;22;20133;-72
2022/05/15 00:10:07;;;;;;;17.25;4.30;;;9.80;99.90;;;;;;6314151;22;20026;-73
2022/05/15 00:12:41;;;;;;;18.85;4.63;;;9.20;99.90;;;;;;6341500;22;20032;-71
2022/05/15 00:15:10;;;;;;;22.05;4.47;;;9.10;99.90;;;;;;6313793;22;20424;-72
2022/05/15 00:17:45;;;;;;;18.48;4.50;;;9.30;99.90;;;;;;6313129;22;20024;-71
2022/05/15 00:20:11;;;;;;;16.45;4.30;;;9.10;99.90;;;;;;6340802;22;20022;-71
2022/05/15 00:22:42;;;;;;;16.30;4.82;;;9.00;99.90;;;;;;6340525;22;20056;-71
2022/05/15 00:25:14;;;;;;;19.92;5.03;;;8.60;99.90;;;;;;6313104;22;20046;-71
2022/05/15 00:27:44;;;;;;;17.23;4.50;;;9.10;99.90;;;;;;6313155;22;20023;-72
2022/05/15 00:30:22;;;;;;;23.27;4.80;;;8.60;99.90;;;;;;6339785;22;20021;-71
2022/05/15 00:32:58;;;;;;;15.90;4.50;;;9.00;99.90;;;;;;6341373;22;20059;-71
2022/05/15 00:35:28;;;;;;;21.45;5.25;;;9.00;99.90;;;;;;6339677;22;20437;-70
2022/05/15 00:37:57;;;;;;;17.10;4.60;;;8.90;99.90;;;;;;6340850;22;20015;-71
2022/05/15 00:40:23;;;;;;;20.70;4.35;;;8.90;99.90;;;;;;6340521;22;20014;-71
2022/05/15 00:42:56;;;;;;;15.57;3.88;;;8.80;99.90;;;;;;6287735;22;20023;-72
2022/05/15 00:45:32;;;;;;;18.42;4.55;;;8.80;99.90;;;;;;6340273;22;20014;-73
2022/05/15 00:48:08;;;;;;;15.57;4.63;;;8.80;99.90;;;;;;6341061;22;20050;-69
2022/05/15 00:50:41;;;;;;;15.68;4.25;;;8.80;99.90;;;;;;6335897;22;20475;-71
2022/05/15 00:53:16;;;;;;;19.30;4.47;;;8.70;99.90;;;;;;6340857;22;20049;-71
2022/05/15 00:55:49;;;;;;;18.85;5.00;;;8.70;99.90;;;;;;6340387;22;20022;-72
2022/05/15 00:58:37;;;;;;;14.27;4.53;;;8.70;99.90;;;;;;6340913;22;20011;-73
2022/05/15 01:01:07;;;;;;;16.13;4.90;;;8.60;99.90;;;;;;6306296;22;20117;-71
2022/05/15 01:03:43;;;;;;;21.52;5.40;;;8.60;99.90;;;;;;6309719;22;20062;-69
2022/05/15 01:06:13;;;;;;;22.88;5.00;;;8.70;99.90;;;;;;6309281;22;20049;-71
2022/05/15 01:08:39;;;;;;;19.60;4.82;;;8.60;99.90;;;;;;6309336;22;20055;-70
2022/05/15 01:11:11;;;;;;;18.63;5.35;;;8.60;99.90;;;;;;6309600;22;20030;-72
2022/05/15 01:13:40;;;;;;;18.60;4.80;;;8.60;99.90;;;;;;6309735;22;20034;-71
2022/05/15 01:16:07;;;;;;;18.33;5.05;;;8.60;99.90;;;;;;6307757;22;20019;-70
2022/05/15 01:18:36;;;;;;;15.38;4.50;;;8.60;99.90;;;;;;6309816;22;20019;-71
2022/05/15 01:21:20;;;;;;;20.38;5.40;;;8.50;99.90;;;;;;6308737;22;20351;-73
2022/05/15 01:23:49;;;;;;;20.98;5.93;;;8.50;99.90;;;;;;6308306;22;20072;-70
2022/05/15 01:26:30;;;;;;;23.02;4.70;;;8.50;99.90;;;;;;6309808;22;20022;-70
2022/05/15 01:29:05;;;;;;;16.52;4.95;;;7.70;99.90;;;;;;6309821;22;20046;-70
2022/05/15 01:31:36;;;;;;;19.88;5.05;;;8.40;99.90;;;;;;6309044;22;20038;-71
2022/05/15 01:34:06;;;;;;;19.67;5.57;;;8.40;99.90;;;;;;6308683;22;20058;-72
2022/05/15 01:36:32;;;;;;;16.83;4.78;;;8.40;99.90;;;;;;6280930;22;20106;-73
2022/05/15 01:39:02;;;;;;;13.20;4.28;;;8.40;99.90;;;;;;6307153;22;20019;-70
2022/05/15 01:41:30;;;;;;;17.95;4.57;;;8.30;99.90;;;;;;6309103;22;20352;-72
2022/05/15 01:44:00;;;;;;;17.83;5.07;;;8.30;99.90;;;;;;6308811;22;20467;-71
2022/05/15 01:46:30;;;;;;;14.95;4.30;;;8.20;99.90;;;;;;6309803;22;20045;-72
2022/05/15 01:48:59;;;;;;;19.20;5.13;;;8.20;99.90;;;;;;6310420;22;20362;-70
2022/05/15 01:51:32;;;;;;;18.20;4.43;;;8.20;99.90;;;;;;6309365;22;20025;-72
2022/05/15 01:54:08;;;;;;;17.98;4.75;;;8.10;99.90;;;;;;6308077;22;20440;-71
2022/05/15 01:56:44;;;;;;;22.40;4.90;;;8.10;99.90;;;;;;6307846;22;20044;-71
2022/05/15 01:59:11;;;;;;;14.55;4.93;;;8.00;99.90;;;;;;6308799;22;20049;-69
2022/05/15 02:01:38;;;;;;;19.90;4.65;;;8.00;99.90;;;;;;6281685;22;20015;-72
2022/05/15 02:04:04;;;;;;;14.70;4.53;;;8.00;99.90;;;;;;6307118;22;20025;-72
2022/05/15 02:06:30;;;;;;;21.73;4.75;;;7.90;99.90;;;;;;6307105;22;20054;-72
2022/05/15 02:08:57;;;;;;;14.95;4.90;;;7.90;99.90;;;;;;6306197;22;20019;-72
2022/05/15 02:11:22;;;;;;;17.08;5.28;;;7.90;99.90;;;;;;6305131;22;20042;-73
2022/05/15 02:13:49;;;;;;;18.30;5.13;;;7.80;99.90;;;;;;6306917;22;20019;-73
2022/05/15 02:16:15;;;;;;;19.08;5.18;;;7.70;99.90;;;;;;6306544;22;20011;-72
2022/05/15 02:18:40;;;;;;;17.33;5.63;;;7.70;99.90;;;;;;6307033;22;20092;-73
2022/05/15 02:21:06;;;;;;;18.77;5.05;;;7.70;99.90;;;;;;6307075;22;20015;-72
2022/05/15 02:23:35;;;;;;;15.55;4.88;;;7.70;99.90;;;;;;6304689;22;20012;-76
2022/05/15 02:26:01;;;;;;;15.85;4.80;;;7.60;99.90;;;;;;6304995;22;20028;-77
2022/05/15 02:28:27;;;;;;;14.05;4.57;;;7.60;99.90;;;;;;6307074;22;20019;-75
2022/05/15 02:30:53;;;;;;;19.65;4.82;;;7.60;99.90;;;;;;6306925;22;20015;-75
2022/05/15 02:33:18;;;;;;;15.57;4.60;;;7.60;99.90;;;;;;6306990;22;20011;-73
2022/05/15 02:35:44;;;;;;;16.23;5.22;;;7.50;99.90;;;;;;6306865;22;20011;-71
2022/05/15 02:38:10;;;;;;;14.55;4.50;;;7.70;99.90;;;;;;6304747;22;20029;-71
2022/05/15 02:40:36;;;;;;;15.25;4.78;;;7.50;99.90;;;;;;6305929;22;20082;-76
2022/05/15 02:43:02;;;;;;;14.40;5.10;;;7.50;99.90;;;;;;6306875;22;20019;-76
2022/05/15 02:45:28;;;;;;;14.30;4.70;;;7.50;99.90;;;;;;6306798;22;20016;-74
2022/05/15 02:47:54;;;;;;;15.95;4.50;;;7.50;99.90;;;;;;6304742;22;20022;-71
2022/05/15 02:53:05;;;;;;;16.83;4.32;;;7.40;99.90;;;;;;6306799;22;20382;-73
2022/05/15 02:55:31;;;;;;;16.48;4.70;;;7.40;99.90;;;;;;6306287;22;20077;-77
2022/05/15 02:57:57;;;;;;;14.40;4.00;;;7.50;99.90;;;;;;6306554;22;20452;-75
2022/05/15 03:00:25;;;;;;;11.82;4.53;;;7.30;99.90;;;;;;6313423;22;20067;-73
2022/05/15 03:02:50;;;;;;;13.00;4.20;;;7.30;99.90;;;;;;6309935;22;20015;-74
2022/05/15 03:05:17;;;;;;;16.27;5.13;;;7.30;99.90;;;;;;6337420;22;20293;-76
2022/05/15 03:07:43;;;;;;;18.75;4.90;;;7.30;99.90;;;;;;6337313;22;20023;-76
2022/05/15 03:10:12;;;;;;;17.42;4.72;;;7.30;99.90;;;;;;6337193;22;20316;-76
2022/05/15 03:12:37;;;;;;;14.55;4.68;;;7.30;99.90;;;;;;6337388;22;20014;-74
2022/05/15 03:15:05;;;;;;;14.05;4.93;;;7.30;99.90;;;;;;6310280;22;20337;-76
2022/05/15 03:17:32;;;;;;;15.30;4.75;;;7.30;99.90;;;;;;6337847;22;20034;-76
2022/05/15 03:19:58;;;;;;;13.18;4.80;;;7.30;99.90;;;;;;6337717;22;20019;-74
2022/05/15 03:22:23;;;;;;;14.75;4.65;;;7.30;99.90;;;;;;6337764;22;20068;-73
2022/05/15 03:24:49;;;;;;;14.50;5.00;;;7.20;99.90;;;;;;6339289;22;20415;-75
2022/05/15 03:27:16;;;;;;;15.27;4.40;;;7.20;99.90;;;;;;6338949;22;20317;-77
2022/05/15 03:29:42;;;;;;;14.73;4.50;;;7.20;99.90;;;;;;6339314;22;20448;-72
2022/05/15 03:32:08;;;;;;;13.70;4.95;;;7.20;99.90;;;;;;6311660;22;20011;-73
2022/05/15 03:34:33;;;;;;;13.05;4.35;;;7.20;99.90;;;;;;6339421;22;20413;-74
2022/05/15 03:36:59;;;;;;;11.23;4.40;;;7.20;99.90;;;;;;6338932;22;20411;-72
2022/05/15 03:39:25;;;;;;;12.50;4.00;;;7.10;99.90;;;;;;6339429;22;20089;-72
2022/05/15 03:41:51;;;;;;;13.38;4.60;;;6.70;99.90;;;;;;6339163;22;20128;-69
2022/05/15 03:44:17;;;;;;;13.82;4.72;;;7.00;99.90;;;;;;6338913;22;20030;-72
2022/05/15 03:46:44;;;;;;;15.65;4.40;;;7.00;99.90;;;;;;6338793;22;20440;-73
2022/05/15 03:49:13;;;;;;;11.07;4.13;;;7.00;99.90;;;;;;6311508;22;20018;-74
2022/05/15 03:51:39;;;;;;;15.32;4.07;;;7.00;99.90;;;;;;6339460;22;20007;-70
2022/05/15 03:54:05;;;;;;;13.30;4.00;;;7.00;99.90;;;;;;6311172;22;20105;-70
2022/05/15 03:59:18;;;;;;;14.63;4.97;;;6.90;99.90;;;;;;6339094;22;20079;-70
2022/05/15 04:01:43;;;;;;;14.18;4.50;;;6.90;99.90;;;;;;6311134;22;20019;-71
2022/05/15 04:04:09;;;;;;;13.57;4.18;;;6.80;99.90;;;;;;6339139;22;20021;-69
2022/05/15 04:06:35;;;;;;;14.02;4.30;;;6.80;99.90;;;;;;6311423;22;20019;-71
2022/05/15 04:09:01;;;;;;;13.27;4.45;;;6.90;99.90;;;;;;6339336;22;20025;-70
2022/05/15 04:11:27;;;;;;;14.93;4.93;;;6.90;99.90;;;;;;6339262;22;20011;-69
2022/05/15 04:13:52;;;;;;;11.23;4.80;;;6.90;99.90;;;;;;6338751;22;20053;-70
2022/05/15 04:16:18;;;;;;;16.65;5.10;;;7.00;99.90;;;;;;6338950;22;20015;-70
2022/05/15 04:18:43;;;;;;;11.70;5.18;;;7.00;99.90;;;;;;6311126;22;20400;-70
2022/05/15 04:21:10;;;;;;;18.15;6.00;;;7.00;99.90;;;;;;6338857;22;20094;-71
2022/05/15 04:23:36;;;;;;;15.38;5.28;;;7.10;99.90;;;;;;6338694;22;20023;-70
2022/05/15 04:26:02;;;;;;;13.85;4.93;;;7.10;99.90;;;;;;6338713;22;20413;-71
2022/05/15 04:28:28;;;;;;;20.58;6.22;;;7.10;99.90;;;;;;6338632;22;20054;-70
2022/05/15 04:30:53;;;;;;;14.10;5.53;;;7.20;99.90;;;;;;6338369;22;20436;-70
2022/05/15 04:33:19;;;;;;;16.20;5.20;;;7.30;99.90;;;;;;6338738;22;20018;-70
2022/05/15 04:35:44;;;;;;;17.30;5.32;;;7.30;99.90;;;;;;6338951;22;20022;-71
2022/05/15 04:38:10;;;;;;;20.15;6.35;;;7.30;99.90;;;;;;6338470;22;20081;-70
2022/05/15 04:40:36;;;;;;;14.10;5.30;;;7.40;99.90;;;;;;6339053;22;20374;-70
2022/05/15 04:43:03;;;;;;;13.80;5.15;;;8.00;99.90;;;;;;6310541;22;20383;-71
2022/05/15 04:45:29;;;;;;;13.00;5.03;;;7.50;99.90;;;;;;6338197;22;20316;-70
2022/05/15 04:47:54;;;;;;;12.10;5.07;;;7.70;99.90;;;;;;6310569;22;20046;-68
2022/05/15 04:50:21;;;;;;;13.95;5.07;;;7.70;99.90;;;;;;6310808;22;20013;-71
2022/05/15 04:52:47;;;;;;;17.17;6.72;;;7.80;99.90;;;;;;6338447;22;20014;-72
2022/05/15 04:55:13;;;;;;;15.98;5.75;;;7.80;99.90;;;;;;6338250;22;20014;-71
2022/05/15 04:57:40;;;;;;;16.80;5.78;;;7.90;99.90;;;;;;6337718;22;20015;-71
2022/05/15 05:00:13;;;;;;;18.73;6.70;;;8.00;99.90;;;;;;6338044;22;20011;-70
2022/05/15 05:02:39;;;;;;;23.95;7.22;;;8.10;99.90;;;;;;6310575;22;20019;-72
2022/05/15 05:05:05;;;;;;;20.20;7.32;;;8.20;99.90;;;;;;6338308;22;20064;-69
2022/05/15 05:07:31;;;;;;;23.10;8.30;;;8.30;99.90;;;;;;6310374;22;20034;-68
2022/05/15 05:09:57;;;;;;;21.77;7.50;;;8.40;99.90;;;;;;6338462;22;20011;-70
2022/05/15 05:12:23;;;;;;;18.67;7.15;;;8.50;99.90;;;;;;6337753;22;20022;-69
2022/05/15 05:14:49;;;;;;;15.50;6.40;;;8.60;99.90;;;;;;6338469;22;20337;-69
2022/05/15 05:17:15;;;;;;;19.33;7.80;;;8.70;99.90;;;;;;6337801;22;20015;-70
2022/05/15 05:19:42;;;;;;;18.73;6.88;;;8.80;99.90;;;;;;6309858;22;20444;-72
2022/05/15 05:22:07;;;;;;;23.77;7.03;;;8.90;99.90;;;;;;6338161;22;20014;-70
2022/05/15 05:24:33;;;;;;;25.10;9.13;;;8.90;99.90;;;;;;6310776;22;20023;-70
2022/05/15 05:26:59;;;;;;;22.13;7.88;;;9.00;99.90;;;;;;6338343;22;20042;-70
2022/05/15 05:29:25;;;;;;;23.65;7.57;;;9.00;99.90;;;;;;6338504;22;20022;-70
2022/05/15 05:31:51;;;;;;;22.20;7.65;;;9.20;99.90;;;;;;6337584;22;20025;-72
2022/05/15 05:34:17;;;;;;;26.15;7.60;;;9.30;99.90;;;;;;6338233;22;20015;-71
2022/05/15 05:36:43;;;;;;;21.63;7.35;;;9.40;99.90;;;;;;6338340;22;20015;-71
2022/05/15 05:39:09;;;;;;;20.60;8.38;;;9.50;99.90;;;;;;6338078;22;20009;-71
2022/05/15 05:41:34;;;;;;;24.48;8.10;;;9.80;99.90;;;;;;6338022;22;20019;-71
2022/05/15 05:44:00;;;;;;;21.98;8.75;;;9.80;99.90;;;;;;6338079;22;20007;-71
2022/05/15 05:46:27;;;;;;;21.55;8.02;;;9.90;99.90;;;;;;6337683;22;20065;-69
2022/05/15 05:48:54;;;;;;;21.98;7.60;;;10.20;99.90;;;;;;6337636;22;20094;-70
2022/05/15 05:51:21;;;;;;;24.33;7.57;;;10.50;99.90;;;;;;6310345;22;20077;-71
2022/05/15 05:53:47;;;;;;;20.45;9.02;;;10.30;99.90;;;;;;6309419;22;20019;-70
2022/05/15 05:56:13;;;;;;;20.85;6.95;;;10.40;99.90;;;;;;6337713;22;20085;-68
2022/05/15 05:58:39;;;;;;;21.85;6.97;;;10.60;99.90;;;;;;6338168;22;20082;-70
2022/05/15 06:01:05;;;;;;;26.35;8.10;;;10.70;99.90;;;;;;6337594;22;20045;-70
2022/05/15 06:06:15;;;;;;;23.63;8.80;;;10.90;99.90;;;;;;6337890;22;20336;-70
2022/05/15 06:08:42;;;;;;;22.55;7.18;;;11.00;99.90;;;;;;6337868;22;20022;-71
2022/05/15 06:11:09;;;;;;;19.33;7.22;;;11.10;99.90;;;;;;6338230;22;20011;-71
2022/05/15 06:13:34;;;;;;;21.55;8.27;;;11.20;99.90;;;;;;6309968;22;20064;-69
2022/05/15 06:16:01;;;;;;;18.33;7.40;;;11.20;99.90;;;;;;6309994;22;20022;-72
2022/05/15 06:18:27;;;;;;;22.90;9.35;;;11.30;99.90;;;;;;6337803;22;20011;-70
2022/05/15 06:20:52;;;;;;;24.63;7.82;;;11.40;99.90;;;;;;6337802;22;20053;-71
2022/05/15 06:23:18;;;;;;;19.08;7.35;;;11.50;99.90;;;;;;6337904;22;20011;-71
2022/05/15 06:25:45;;;;;;;23.30;7.10;;;11.60;99.90;;;;;;6338181;22;20025;-71
2022/05/15 06:28:10;;;;;;;24.80;7.57;;;11.70;99.90;;;;;;6337283;22;20029;-71
2022/05/15 06:30:37;;;;;;;28.10;7.63;;;11.80;99.90;;;;;;6337935;22;20023;-70
2022/05/15 06:33:06;;;;;;;21.55;7.82;;;11.80;99.90;;;;;;6337833;22;20053;-72
2022/05/15 06:35:32;;;;;;;18.85;6.93;;;11.90;99.90;;;;;;6337668;22;20022;-70
2022/05/15 06:38:03;;;;;;;22.48;7.93;;;12.00;99.90;;;;;;6337970;22;20073;-71
2022/05/15 06:40:28;;;;;;;21.33;6.75;;;12.10;99.90;;;;;;6338027;22;20343;-70
2022/05/15 06:42:54;;;;;;;17.35;6.32;;;12.20;99.90;;;;;;6337658;22;20038;-73
2022/05/15 06:45:20;;;;;;;17.05;6.05;;;12.30;99.90;;;;;;6337515;22;20011;-69
2022/05/15 06:47:46;;;;;;;21.52;6.03;;;12.40;99.90;;;;;;6337975;22;20019;-71
2022/05/15 06:50:12;;;;;;;20.15;6.30;;;12.50;99.90;;;;;;6336867;22;20432;-72
2022/05/15 06:52:38;;;;;;;26.55;5.78;;;12.60;99.90;;;;;;6338136;22;20018;-70
2022/05/15 06:55:08;;;;;;;17.67;6.15;;;12.80;99.90;;;;;;6337747;22;20019;-71
2022/05/15 06:57:33;;;;;;;17.15;5.60;;;12.80;99.90;;;;;;6338638;22;20022;-72
2022/05/15 07:00:04;;;;;;;16.70;5.53;;;12.90;99.90;;;;;;6339901;22;20014;-70
2022/05/15 07:02:30;;;;;;;18.40;5.88;;;13.00;99.90;;;;;;6339585;22;20041;-70
2022/05/15 07:04:56;;;;;;;22.45;5.20;;;13.10;99.90;;;;;;6339427;22;20025;-71
2022/05/15 07:07:22;;;;;;;16.90;5.45;;;13.30;99.90;;;;;;6339533;22;20015;-69
2022/05/15 07:09:47;;;;;;;16.25;5.28;;;13.40;99.90;;;;;;6339760;22;20329;-70
2022/05/15 07:12:13;;;;;;;17.38;5.22;;;13.60;99.90;;;;;;6312050;22;20104;-72
2022/05/15 07:14:39;;;;;;;15.75;5.47;;;13.70;99.90;;;;;;6339899;22;20022;-70
2022/05/15 07:17:05;;;;;;;17.98;5.65;;;13.80;99.90;;;;;;6339902;22;20010;-72
2022/05/15 07:19:34;;;;;;;18.20;5.28;;;13.90;99.90;;;;;;6338908;22;20416;-70
2022/05/15 07:22:07;;;;;;;20.98;6.25;;;14.00;99.90;;;;;;6284410;22;20019;-72
2022/05/15 07:24:33;;;;;;;15.73;4.97;;;14.20;99.90;;;;;;6338141;22;20023;-70
2022/05/15 07:26:59;;;;;;;13.80;4.28;;;14.40;99.90;;;;;;6310302;22;20011;-69
2022/05/15 07:29:25;;;;;;;19.23;4.63;;;14.40;99.90;;;;;;6338180;22;20102;-78
2022/05/15 07:31:53;;;;;;;15.18;4.65;;;14.70;99.90;;;;;;6338489;22;20019;-71
2022/05/15 07:34:19;;;;;;;14.90;4.65;;;15.10;99.90;;;;;;6310394;22;20011;-70
2022/05/15 07:36:50;;;;;;;13.48;3.92;;;14.90;99.90;;;;;;6309294;22;20029;-72
2022/05/15 07:39:17;;;;;;;15.52;3.97;;;15.00;99.90;;;;;;6310007;22;20046;-71
2022/05/15 07:41:42;;;;;;;14.65;4.60;;;15.70;99.90;;;;;;6311323;22;20018;-71
2022/05/15 07:44:08;;;;;;;14.88;3.85;;;15.40;99.90;;;;;;6310287;22;20067;-71
2022/05/15 07:46:34;;;;;;;16.88;4.10;;;15.50;99.90;;;;;;6338236;22;20018;-72
2022/05/15 07:49:00;;;;;;;14.90;3.30;;;15.80;99.90;;;;;;6337888;22;20010;-71
2022/05/15 07:51:25;;;;;;;19.38;4.15;;;15.80;99.90;;;;;;6310129;22;20026;-69
2022/05/15 07:53:51;;;;;;;18.38;4.85;;;15.90;99.90;;;;;;6339467;22;20499;-73
2022/05/15 07:56:17;;;;;;;13.77;3.22;;;16.30;99.90;;;;;;6339702;22;20466;-70
2022/05/15 07:58:43;;;;;;;12.85;3.40;;;16.10;99.90;;;;;;6340405;22;20090;-73
2022/05/15 08:01:09;;;;;;;11.30;2.88;;;16.10;99.90;;;;;;6285700;22;20462;-71
2022/05/15 08:03:43;;;;;;;14.18;3.25;;;16.20;99.90;;;;;;6312469;22;20054;-70
2022/05/15 08:08:58;;;;;;;15.27;3.58;;;16.60;99.90;;;;;;6309582;22;20023;-71
2022/05/15 08:11:28;;;;;;;12.35;3.45;;;16.90;99.90;;;;;;6310603;22;20067;-71
2022/05/15 08:13:58;;;;;;;11.00;3.30;;;16.90;99.90;;;;;;6339014;22;20021;-71
2022/05/15 08:16:24;;;;;;;16.27;3.80;;;17.10;99.90;;;;;;6311223;22;20015;-71
2022/05/15 08:24:19;;;;;;;16.25;3.88;;;17.30;99.90;;;;;;6311225;22;20057;-70
2022/05/15 08:26:45;;;;;;;16.98;4.05;;;17.30;99.90;;;;;;6339164;22;20367;-71
2022/05/15 08:29:11;;;;;;;15.98;3.40;;;17.30;99.90;;;;;;6338913;22;20011;-71
2022/05/15 08:31:39;;;;;;;15.38;4.05;;;17.30;99.90;;;;;;6339071;22;20361;-73
2022/05/15 08:34:05;;;;;;;14.20;3.00;;;17.30;99.90;;;;;;6338720;22;20053;-71
2022/05/15 08:36:31;;;;;;;12.32;3.10;;;17.50;99.90;;;;;;6338484;22;20089;-71
2022/05/15 08:38:57;;;;;;;10.63;2.72;;;17.70;99.90;;;;;;6338453;22;20038;-71
2022/05/15 08:41:36;;;;;;;14.25;3.20;;;17.90;99.90;;;;;;6338701;22;20432;-71
2022/05/15 08:44:14;;;;;;;16.10;4.47;;;18.00;99.90;;;;;;6338590;22;20396;-70
2022/05/15 08:46:49;;;;;;;11.77;2.95;;;18.00;99.90;;;;;;6310866;22;20456;-71
2022/05/15 08:49:41;;;;;;;12.40;2.92;;;18.10;99.90;;;;;;6338758;22;20011;-71
2022/05/15 08:52:17;;;;;;;14.02;3.28;;;18.20;99.90;;;;;;6338196;22;20018;-70
2022/05/15 08:54:56;;;;;;;15.30;3.63;;;18.40;99.90;;;;;;6337911;22;20057;-71
2022/05/15 08:57:54;;;;;;;13.05;2.97;;;18.40;99.90;;;;;;6338185;22;20022;-71
2022/05/15 09:00:31;;;;;;;11.40;2.80;;;18.40;99.90;;;;;;6334984;22;20015;-71
2022/05/15 09:03:12;;;;;;;16.63;3.53;;;18.50;99.90;;;;;;6338073;22;20440;-69
2022/05/15 09:05:45;;;;;;;10.18;2.58;;;18.40;99.90;;;;;;6338735;22;20068;-70
2022/05/15 09:08:46;;;;;;;13.13;3.00;;;18.60;99.90;;;;;;6338790;22;20022;-72
2022/05/15 09:11:15;;;;;;;14.27;3.22;;;18.60;99.90;;;;;;6338218;22;20094;-72
2022/05/15 09:14:07;;;;;;;13.57;3.22;;;18.60;99.90;;;;;;6338359;22;20389;-72
2022/05/15 09:16:34;;;;;;;11.10;2.90;;;18.80;99.90;;;;;;6311655;22;20096;-71
2022/05/15 09:19:08;;;;;;;12.80;3.15;;;18.90;99.90;;;;;;6310377;22;20018;-70
2022/05/15 09:21:34;;;;;;;14.75;3.75;;;19.10;99.90;;;;;;6309985;22;20023;-71
2022/05/15 09:24:36;;;;;;;15.45;3.20;;;19.10;99.90;;;;;;6338636;22;20310;-71
2022/05/15 09:27:12;;;;;;;13.75;3.83;;;19.20;99.90;;;;;;6329517;22;20019;-71
2022/05/15 09:29:38;;;;;;;15.80;3.50;;;19.30;99.90;;;;;;6310701;22;20022;-72
2022/05/15 09:32:13;;;;;;;10.93;2.40;;;19.30;99.90;;;;;;6338342;22;20034;-71
2022/05/15 09:34:42;;;;;;;15.00;3.03;;;19.40;99.90;;;;;;6338617;22;20041;-72
2022/05/15 09:40:08;;;;;;;12.52;3.25;;;19.50;99.90;;;;;;6338084;22;20463;-72
2022/05/15 09:45:27;;;;;;;13.13;3.17;;;19.60;99.90;;;;;;6338363;22;20023;-71
2022/05/15 09:47:53;;;;;;;13.57;3.20;;;19.60;99.90;;;;;;6338237;22;20015;-74
2022/05/15 09:50:49;;;;;;;15.68;3.65;;;19.80;99.90;;;;;;6338293;22;20042;-73
2022/05/15 09:53:36;;;;;;;12.73;3.30;;;19.90;98.40;;;;;;6337531;22;20067;-72
2022/05/15 09:56:26;;;;;;;12.60;3.40;;;20.10;98.50;;;;;;6309592;22;20049;-71
2022/05/15 09:58:56;;;;;;;12.98;3.00;;;20.20;99.10;;;;;;6310061;22;20036;-73
2022/05/15 10:01:35;;;;;;;11.20;3.20;;;20.10;98.80;;;;;;6304326;22;20390;-71
2022/05/15 10:04:07;;;;;;;12.32;2.65;;;20.10;98.70;;;;;;6308165;22;20345;-71
2022/05/15 10:06:47;;;;;;;13.63;3.08;;;20.30;98.90;;;;;;6308279;22;20019;-70
2022/05/15 10:09:22;;;;;;;13.55;3.53;;;20.30;98.50;;;;;;6305288;22;20015;-70
2022/05/15 10:11:58;;;;;;;12.20;3.00;;;20.30;98.10;;;;;;6305385;22;20475;-70
2022/05/15 10:14:38;;;;;;;11.48;3.00;;;20.50;98.30;;;;;;6304711;22;20470;-71
2022/05/15 10:17:06;;;;;;;15.15;3.47;;;20.60;95.70;;;;;;6305100;22;20505;-71
2022/05/15 10:19:48;;;;;;;13.02;3.17;;;20.60;96.70;;;;;;6307265;22;20022;-72
2022/05/15 10:22:35;;;;;;;14.60;3.70;;;20.70;93.00;;;;;;6306735;22;20491;-70
2022/05/15 10:25:33;;;;;;;11.18;3.28;;;20.70;96.00;;;;;;6306290;22;20011;-71
2022/05/15 10:28:23;;;;;;;14.40;3.50;;;20.80;96.60;;;;;;6278868;22;20023;-71
2022/05/15 10:31:03;;;;;;;13.30;3.40;;;20.80;94.10;;;;;;6304796;22;20098;-71
2022/05/15 10:33:36;;;;;;;14.35;3.35;;;20.60;94.30;;;;;;6306588;22;20054;-71
2022/05/15 10:36:09;;;;;;;14.43;3.85;;;20.70;94.30;;;;;;6306620;22;20026;-71
2022/05/15 10:39:05;;;;;;;13.68;3.10;;;20.80;93.60;;;;;;6304656;22;20023;-71
2022/05/15 10:41:54;;;;;;;11.95;2.75;;;20.90;92.50;;;;;;6304906;22;20022;-71
2022/05/15 10:44:42;;;;;;;14.32;3.70;;;21.00;92.50;;;;;;6305890;22;20023;-70
2022/05/15 10:47:20;;;;;;;15.05;3.55;;;21.00;92.10;;;;;;6304825;22;20046;-70
2022/05/15 10:50:03;;;;;;;18.35;3.63;;;21.10;92.50;;;;;;6306052;22;20128;-71
2022/05/15 10:52:59;;;;;;;13.13;3.03;;;21.00;91.30;;;;;;6306776;22;20015;-71
2022/05/15 10:58:50;;;;;;;12.10;3.00;;;21.00;90.40;;;;;;6306662;22;20039;-71
2022/05/15 11:01:30;;;;;;;10.38;2.75;;;21.10;88.90;;;;;;6315077;22;20025;-72
2022/05/15 11:04:36;;;;;;;12.50;3.17;;;21.10;84.90;;;;;;6337798;22;20019;-71
2022/05/15 11:07:10;;;;;;;15.18;3.15;;;21.30;82.80;;;;;;6272232;22;20077;-72
2022/05/15 11:09:54;;;;;;;11.20;3.10;;;21.50;86.00;;;;;;6272687;22;20074;-73
2022/05/15 11:12:46;;;;;;;12.75;3.20;;;21.60;85.40;;;;;;6272569;22;20064;-71
2022/05/15 11:15:24;;;;;;;11.27;3.10;;;21.70;82.40;;;;;;6272086;22;20070;-72
2022/05/15 11:18:22;;;;;;;9.88;2.83;;;21.70;82.40;;;;;;6272425;22;20079;-72
2022/05/15 11:21:01;;;;;;;14.25;3.90;;;21.80;79.40;;;;;;6272585;22;20090;-73
2022/05/15 11:23:42;;;;;;;13.63;3.25;;;21.70;80.10;;;;;;6272486;22;20012;-70
2022/05/15 11:26:21;;;;;;;11.07;2.92;;;21.60;79.50;;;;;;6246757;22;20027;-70
2022/05/15 11:28:54;;;;;;;11.45;2.88;;;21.60;78.60;;;;;;6272703;22;20015;-72
2022/05/15 11:31:24;;;;;;;14.57;3.25;;;21.70;77.70;;;;;;6271501;22;20022;-71
2022/05/15 11:33:54;;;;;;;14.82;2.72;;;21.70;76.60;;;;;;6246601;22;20047;-72
2022/05/15 11:36:25;;;;;;;8.63;2.20;;;21.70;77.30;;;;;;6246819;22;20015;-70
2022/05/15 11:39:00;;;;;;;11.27;2.50;;;21.80;77.20;;;;;;6271457;22;20127;-71
2022/05/15 11:41:30;;;;;;;12.48;3.38;;;22.00;75.80;;;;;;6272686;22;20019;-69
2022/05/15 11:43:58;;;;;;;17.73;5.18;;;22.20;75.50;;;;;;6270917;22;20014;-72
2022/05/15 11:46:46;;;;;;;11.77;2.92;;;22.30;74.60;;;;;;6311192;22;20341;-73
2022/05/15 11:49:31;;;;;;;13.13;3.45;;;22.60;74.80;;;;;;6311509;22;20086;-72
2022/05/15 11:52:19;;;;;;;12.73;2.63;;;22.40;71.10;;;;;;6339564;22;20027;-72
2022/05/15 11:54:53;;;;;;;9.82;2.63;;;22.40;72.80;;;;;;6339327;22;20072;-70
2022/05/15 11:57:42;;;;;;;13.82;3.05;;;22.30;71.80;;;;;;6339647;22;20007;-71
2022/05/15 12:00:20;;;;;;;10.15;2.42;;;22.20;71.40;;;;;;6311925;22;20441;-71
2022/05/15 12:02:56;;;;;;;13.82;2.90;;;22.20;72.20;;;;;;6311370;22;20015;-71
2022/05/15 12:05:35;;;;;;;11.10;2.70;;;22.20;70.80;;;;;;6285877;22;20094;-71
2022/05/15 12:08:22;;;;;;;11.43;2.60;;;22.30;70.20;;;;;;6311415;22;20395;-69
2022/05/15 12:10:48;;;;;;;10.93;2.80;;;22.20;69.50;;;;;;6339149;22;20023;-71
2022/05/15 12:13:33;;;;;;;11.05;2.60;;;22.40;69.20;;;;;;6286253;22;20015;-71
2022/05/15 12:16:17;;;;;;;10.85;2.38;;;22.50;68.60;;;;;;6339140;22;20015;-69
2022/05/15 12:18:43;;;;;;;10.73;2.38;;;22.40;67.90;;;;;;6339145;22;20336;-71
2022/05/15 12:21:13;;;;;;;13.13;2.17;;;22.40;68.10;;;;;;6311749;22;20010;-69
2022/05/15 12:24:27;;;;;;;10.15;2.17;;;22.50;68.20;;;;;;6311776;22;20344;-70
2022/05/15 12:26:41;;;;;;;13.38;2.50;;;22.30;66.10;;;;;;6311252;22;20023;-71
2022/05/15 12:30:00;;;;;;;11.48;3.00;;;22.30;66.30;;;;;;6339300;22;20020;-71
2022/05/15 12:32:45;;;;;;;11.18;2.13;;;22.20;63.60;;;;;;6273841;22;20015;-71
2022/05/15 12:35:24;;;;;;;10.07;2.58;;;22.40;65.00;;;;;;6273896;22;20019;-72
2022/05/15 12:37:56;;;;;;;13.63;2.53;;;22.50;64.70;;;;;;6274104;22;20065;-71
2022/05/15 12:40:24;;;;;;;14.68;2.83;;;22.60;63.00;;;;;;6274104;22;20030;-70
2022/05/15 12:42:50;;;;;;;10.35;2.70;;;22.70;63.50;;;;;;6273872;22;20295;-71
2022/05/15 12:45:21;;;;;;;7.82;1.80;;;22.80;63.30;;;;;;6273859;22;20510;-70
2022/05/15 12:48:09;;;;;;;9.27;2.20;;;22.90;61.20;;;;;;6247451;22;20020;-70
2022/05/15 12:50:56;;;;;;;10.68;2.35;;;23.10;59.00;;;;;;6272493;22;20472;-68
2022/05/15 12:53:26;;;;;;;8.95;2.00;;;23.20;59.80;;;;;;6273620;22;20020;-70
2022/05/15 12:55:54;;;;;;;6.90;1.65;;;23.20;59.50;;;;;;6273298;22;20091;-70
2022/05/15 12:58:32;;;;;;;9.02;2.40;;;23.10;60.00;;;;;;6273798;22;20011;-71
2022/05/15 13:01:00;;;;;;;9.82;2.35;;;22.90;58.60;;;;;;6248191;22;20035;-70
2022/05/15 13:03:26;;;;;;;9.25;2.40;;;22.90;58.70;;;;;;6280675;22;20015;-69
2022/05/15 13:06:01;;;;;;;9.93;2.67;;;22.90;58.60;;;;;;6307349;22;20026;-71
2022/05/15 13:08:49;;;;;;;10.07;2.33;;;23.00;58.20;;;;;;6307318;22;20011;-71
2022/05/15 13:11:41;;;;;;;8.18;2.10;;;23.00;57.50;;;;;;6306109;22;20019;-72
2022/05/15 13:14:28;;;;;;;10.02;2.20;;;23.00;57.90;;;;;;6307129;22;20082;-73
2022/05/15 13:16:55;;;;;;;7.95;2.10;;;23.00;56.40;;;;;;6306099;22;20011;-71
2022/05/15 13:19:28;;;;;;;8.05;1.55;;;23.10;55.60;;;;;;6307376;22;20011;-71
2022/05/15 13:21:56;;;;;;;9.55;1.83;;;23.10;55.80;;;;;;6305666;22;20015;-73
2022/05/15 13:24:23;;;;;;;8.70;2.10;;;23.20;56.40;;;;;;6307450;22;20082;-70
2022/05/15 13:26:50;;;;;;;9.48;1.70;;;23.20;55.90;;;;;;6307191;22;20023;-72
2022/05/15 13:29:23;;;;;;;8.55;1.83;;;23.20;55.80;;;;;;6307182;22;20015;-70
2022/05/15 13:31:52;;;;;;;9.18;1.83;;;23.10;55.30;;;;;;6307557;22;20054;-72